sensor_id;sensor_type;location;lat;lon;timestamp;pressure;altitude;pressure_sealevel;temperature;humidity
75247;BME280;63844;50.042;19.224;2023-02-02T00:00:59;98227.44;;;1.03;90.07
75247;BME280;63844;50.042;19.224;2023-02-02T00:03:32;98229.36;;;0.98;90.70
75247;BME280;63844;50.042;19.224;2023-02-02T00:05:59;98232.38;;;0.93;91.19
75247;BME280;63844;50.042;19.224;2023-02-02T00:08:25;98239.11;;;0.89;91.18
75247;BME280;63844;50.042;19.224;2023-02-02T00:10:51;98239.47;;;0.90;91.32
75247;BME280;63844;50.042;19.224;2023-02-02T00:13:18;98236.81;;;0.86;91.35
75247;BME280;63844;50.042;19.224;2023-02-02T00:15:44;98237.36;;;0.81;91.60
75247;BME280;63844;50.042;19.224;2023-02-02T00:18:11;98230.70;;;0.78;91.61
75247;BME280;63844;50.042;19.224;2023-02-02T00:20:37;98232.79;;;0.74;91.53
75247;BME280;63844;50.042;19.224;2023-02-02T00:23:04;98230.74;;;0.67;91.48
75247;BME280;63844;50.042;19.224;2023-02-02T00:25:31;98233.22;;;0.66;91.58
75247;BME280;63844;50.042;19.224;2023-02-02T00:27:58;98244.11;;;0.64;91.56
75247;BME280;63844;50.042;19.224;2023-02-02T00:30:24;98237.39;;;0.62;91.69
75247;BME280;63844;50.042;19.224;2023-02-02T00:32:51;98233.90;;;0.62;91.52
75247;BME280;63844;50.042;19.224;2023-02-02T00:35:18;98237.89;;;0.62;91.62
75247;BME280;63844;50.042;19.224;2023-02-02T00:37:45;98241.55;;;0.63;91.72
75247;BME280;63844;50.042;19.224;2023-02-02T00:40:11;98243.67;;;0.62;92.01
75247;BME280;63844;50.042;19.224;2023-02-02T00:42:38;98248.90;;;0.61;91.85
75247;BME280;63844;50.042;19.224;2023-02-02T00:45:05;98245.98;;;0.60;91.87
75247;BME280;63844;50.042;19.224;2023-02-02T00:47:46;98252.45;;;0.55;92.07
75247;BME280;63844;50.042;19.224;2023-02-02T00:50:16;98257.84;;;0.51;92.25
75247;BME280;63844;50.042;19.224;2023-02-02T00:52:46;98261.58;;;0.49;91.99
75247;BME280;63844;50.042;19.224;2023-02-02T00:55:13;98258.79;;;0.44;92.21
75247;BME280;63844;50.042;19.224;2023-02-02T00:57:40;98267.04;;;0.42;92.12
75247;BME280;63844;50.042;19.224;2023-02-02T01:00:12;98267.22;;;0.38;92.44
75247;BME280;63844;50.042;19.224;2023-02-02T01:02:39;98271.85;;;0.34;92.62
75247;BME280;63844;50.042;19.224;2023-02-02T01:05:06;98267.95;;;0.31;92.41
75247;BME280;63844;50.042;19.224;2023-02-02T01:07:33;98266.73;;;0.27;92.66
75247;BME280;63844;50.042;19.224;2023-02-02T01:09:59;98268.70;;;0.26;92.72
75247;BME280;63844;50.042;19.224;2023-02-02T01:12:26;98268.90;;;0.25;92.57
75247;BME280;63844;50.042;19.224;2023-02-02T01:14:52;98268.13;;;0.22;93.00
75247;BME280;63844;50.042;19.224;2023-02-02T01:17:18;98267.73;;;0.23;92.67
75247;BME280;63844;50.042;19.224;2023-02-02T01:19:45;98267.27;;;0.21;92.77
75247;BME280;63844;50.042;19.224;2023-02-02T01:22:11;98258.98;;;0.19;93.14
75247;BME280;63844;50.042;19.224;2023-02-02T01:24:38;98264.17;;;0.20;93.11
75247;BME280;63844;50.042;19.224;2023-02-02T01:27:04;98264.20;;;0.19;93.28
75247;BME280;63844;50.042;19.224;2023-02-02T01:29:31;98267.81;;;0.20;93.18
75247;BME280;63844;50.042;19.224;2023-02-02T01:31:57;98270.33;;;0.18;93.10
75247;BME280;63844;50.042;19.224;2023-02-02T01:34:24;98276.38;;;0.15;93.21
75247;BME280;63844;50.042;19.224;2023-02-02T01:36:50;98280.12;;;0.12;93.19
75247;BME280;63844;50.042;19.224;2023-02-02T01:39:17;98275.99;;;0.11;93.40
75247;BME280;63844;50.042;19.224;2023-02-02T01:41:43;98283.97;;;0.11;93.21
75247;BME280;63844;50.042;19.224;2023-02-02T01:47:14;98277.41;;;0.15;93.21
75247;BME280;63844;50.042;19.224;2023-02-02T01:49:41;98281.44;;;0.19;93.05
75247;BME280;63844;50.042;19.224;2023-02-02T01:52:09;98282.91;;;0.22;93.32
75247;BME280;63844;50.042;19.224;2023-02-02T01:54:46;98285.36;;;0.27;93.22
75247;BME280;63844;50.042;19.224;2023-02-02T01:57:26;98288.28;;;0.32;92.91
75247;BME280;63844;50.042;19.224;2023-02-02T01:59:56;98296.15;;;0.36;92.97
75247;BME280;63844;50.042;19.224;2023-02-02T02:02:24;98298.98;;;0.40;92.87
75247;BME280;63844;50.042;19.224;2023-02-02T02:04:53;98297.68;;;0.42;93.04
75247;BME280;63844;50.042;19.224;2023-02-02T02:07:21;98300.67;;;0.46;92.85
75247;BME280;63844;50.042;19.224;2023-02-02T02:09:48;98306.35;;;0.48;92.89
75247;BME280;63844;50.042;19.224;2023-02-02T02:12:15;98308.61;;;0.48;92.80
75247;BME280;63844;50.042;19.224;2023-02-02T02:14:48;98306.94;;;0.51;92.66
75247;BME280;63844;50.042;19.224;2023-02-02T02:20:53;98311.23;;;0.52;93.07
75247;BME280;63844;50.042;19.224;2023-02-02T02:27:26;98310.21;;;0.56;93.01
75247;BME280;63844;50.042;19.224;2023-02-02T02:30:10;98313.77;;;0.59;92.75
75247;BME280;63844;50.042;19.224;2023-02-02T02:32:51;98313.82;;;0.62;92.80
75247;BME280;63844;50.042;19.224;2023-02-02T02:35:34;98321.53;;;0.65;92.46
75247;BME280;63844;50.042;19.224;2023-02-02T02:38:18;98322.92;;;0.66;92.57
75247;BME280;63844;50.042;19.224;2023-02-02T02:40:52;98321.63;;;0.68;92.86
75247;BME280;63844;50.042;19.224;2023-02-02T02:43:26;98323.13;;;0.70;92.69
75247;BME280;63844;50.042;19.224;2023-02-02T02:45:55;98325.35;;;0.71;92.58
75247;BME280;63844;50.042;19.224;2023-02-02T02:48:21;98324.09;;;0.72;92.58
75247;BME280;63844;50.042;19.224;2023-02-02T02:50:48;98320.13;;;0.71;92.58
75247;BME280;63844;50.042;19.224;2023-02-02T02:53:20;98317.29;;;0.67;92.74
75247;BME280;63844;50.042;19.224;2023-02-02T02:56:13;98325.53;;;0.71;92.60
75247;BME280;63844;50.042;19.224;2023-02-02T02:58:54;98326.08;;;0.70;92.40
75247;BME280;63844;50.042;19.224;2023-02-02T03:01:34;98334.29;;;0.70;92.37
75247;BME280;63844;50.042;19.224;2023-02-02T03:04:09;98338.41;;;0.71;92.30
75247;BME280;63844;50.042;19.224;2023-02-02T03:06:47;98342.31;;;0.74;92.42
75247;BME280;63844;50.042;19.224;2023-02-02T03:09:26;98345.96;;;0.74;92.34
75247;BME280;63844;50.042;19.224;2023-02-02T03:11:56;98344.92;;;0.78;92.25
75247;BME280;63844;50.042;19.224;2023-02-02T03:14:22;98348.63;;;0.82;92.11
75247;BME280;63844;50.042;19.224;2023-02-02T03:16:52;98350.39;;;0.86;91.80
75247;BME280;63844;50.042;19.224;2023-02-02T03:19:19;98352.57;;;0.88;91.63
75247;BME280;63844;50.042;19.224;2023-02-02T03:21:46;98350.19;;;0.96;91.27
75247;BME280;63844;50.042;19.224;2023-02-02T03:24:12;98350.98;;;0.98;91.19
75247;BME280;63844;50.042;19.224;2023-02-02T03:26:38;98353.95;;;1.03;90.89
75247;BME280;63844;50.042;19.224;2023-02-02T03:29:05;98354.23;;;1.09;90.42
75247;BME280;63844;50.042;19.224;2023-02-02T03:31:31;98355.82;;;1.13;90.34
75247;BME280;63844;50.042;19.224;2023-02-02T03:33:58;98355.86;;;1.17;90.06
75247;BME280;63844;50.042;19.224;2023-02-02T03:36:24;98352.23;;;1.20;90.13
75247;BME280;63844;50.042;19.224;2023-02-02T03:38:51;98352.90;;;1.21;90.14
75247;BME280;63844;50.042;19.224;2023-02-02T03:41:18;98350.91;;;1.23;89.92
75247;BME280;63844;50.042;19.224;2023-02-02T03:43:44;98351.96;;;1.27;89.95
75247;BME280;63844;50.042;19.224;2023-02-02T03:46:11;98350.92;;;1.27;89.58
75247;BME280;63844;50.042;19.224;2023-02-02T03:48:38;98353.84;;;1.28;89.72
75247;BME280;63844;50.042;19.224;2023-02-02T03:51:08;98352.78;;;1.33;89.59
75247;BME280;63844;50.042;19.224;2023-02-02T03:53:37;98351.92;;;1.32;89.34
75247;BME280;63844;50.042;19.224;2023-02-02T03:56:04;98346.80;;;1.34;89.00
75247;BME280;63844;50.042;19.224;2023-02-02T03:58:31;98349.20;;;1.35;88.81
75247;BME280;63844;50.042;19.224;2023-02-02T04:01:01;98345.02;;;1.36;88.93
75247;BME280;63844;50.042;19.224;2023-02-02T04:03:28;98344.58;;;1.38;88.64
75247;BME280;63844;50.042;19.224;2023-02-02T04:05:55;98344.21;;;1.38;88.61
75247;BME280;63844;50.042;19.224;2023-02-02T04:08:21;98341.45;;;1.38;88.46
75247;BME280;63844;50.042;19.224;2023-02-02T04:10:48;98342.91;;;1.40;88.24
75247;BME280;63844;50.042;19.224;2023-02-02T04:13:14;98342.57;;;1.40;88.13
75247;BME280;63844;50.042;19.224;2023-02-02T04:15:41;98339.56;;;1.41;87.82
75247;BME280;63844;50.042;19.224;2023-02-02T04:18:07;98338.05;;;1.44;87.61
75247;BME280;63844;50.042;19.224;2023-02-02T04:20:34;98337.48;;;1.45;87.70
75247;BME280;63844;50.042;19.224;2023-02-02T04:23:00;98335.34;;;1.46;87.67
75247;BME280;63844;50.042;19.224;2023-02-02T04:25:27;98334.08;;;1.47;87.53
75247;BME280;63844;50.042;19.224;2023-02-02T04:27:53;98330.89;;;1.44;87.41
75247;BME280;63844;50.042;19.224;2023-02-02T04:30:20;98331.24;;;1.49;86.81
75247;BME280;63844;50.042;19.224;2023-02-02T04:32:46;98329.79;;;1.50;86.68
75247;BME280;63844;50.042;19.224;2023-02-02T04:35:13;98330.75;;;1.52;86.80
75247;BME280;63844;50.042;19.224;2023-02-02T04:37:39;98328.45;;;1.53;86.75
75247;BME280;63844;50.042;19.224;2023-02-02T04:40:06;98328.98;;;1.53;86.48
75247;BME280;63844;50.042;19.224;2023-02-02T04:42:33;98326.04;;;1.52;86.60
75247;BME280;63844;50.042;19.224;2023-02-02T04:45:00;98325.23;;;1.51;86.30
75247;BME280;63844;50.042;19.224;2023-02-02T04:47:26;98324.55;;;1.54;86.36
75247;BME280;63844;50.042;19.224;2023-02-02T04:49:53;98322.42;;;1.51;86.01
75247;BME280;63844;50.042;19.224;2023-02-02T04:52:19;98327.77;;;1.53;86.36
75247;BME280;63844;50.042;19.224;2023-02-02T04:54:46;98325.21;;;1.51;86.08
75247;BME280;63844;50.042;19.224;2023-02-02T04:57:12;98320.61;;;1.49;85.95
75247;BME280;63844;50.042;19.224;2023-02-02T04:59:39;98323.88;;;1.45;85.79
75247;BME280;63844;50.042;19.224;2023-02-02T05:02:05;98324.34;;;1.47;86.00
75247;BME280;63844;50.042;19.224;2023-02-02T05:04:31;98320.66;;;1.43;86.01
75247;BME280;63844;50.042;19.224;2023-02-02T05:06:58;98324.90;;;1.41;85.56
75247;BME280;63844;50.042;19.224;2023-02-02T05:09:24;98327.13;;;1.38;85.64
75247;BME280;63844;50.042;19.224;2023-02-02T05:11:51;98329.48;;;1.40;85.69
75247;BME280;63844;50.042;19.224;2023-02-02T05:14:17;98321.69;;;1.39;85.23
75247;BME280;63844;50.042;19.224;2023-02-02T05:16:45;98326.97;;;1.42;84.96
75247;BME280;63844;50.042;19.224;2023-02-02T05:19:12;98333.79;;;1.42;84.83
75247;BME280;63844;50.042;19.224;2023-02-02T05:21:38;98334.40;;;1.44;84.34
75247;BME280;63844;50.042;19.224;2023-02-02T05:24:05;98332.88;;;1.47;84.54
75247;BME280;63844;50.042;19.224;2023-02-02T05:26:31;98333.31;;;1.49;84.47
75247;BME280;63844;50.042;19.224;2023-02-02T05:28:58;98336.68;;;1.48;84.42
75247;BME280;63844;50.042;19.224;2023-02-02T05:31:24;98341.52;;;1.49;84.33
75247;BME280;63844;50.042;19.224;2023-02-02T05:33:51;98337.23;;;1.51;84.24
75247;BME280;63844;50.042;19.224;2023-02-02T05:36:17;98335.94;;;1.49;83.87
75247;BME280;63844;50.042;19.224;2023-02-02T05:38:44;98334.62;;;1.51;84.15
75247;BME280;63844;50.042;19.224;2023-02-02T05:41:11;98337.59;;;1.51;83.98
75247;BME280;63844;50.042;19.224;2023-02-02T05:43:37;98335.54;;;1.50;84.28
75247;BME280;63844;50.042;19.224;2023-02-02T05:46:04;98333.37;;;1.48;83.88
75247;BME280;63844;50.042;19.224;2023-02-02T05:48:30;98330.50;;;1.50;84.22
75247;BME280;63844;50.042;19.224;2023-02-02T05:51:04;98327.27;;;1.52;84.26
75247;BME280;63844;50.042;19.224;2023-02-02T05:53:31;98325.79;;;1.54;84.04
75247;BME280;63844;50.042;19.224;2023-02-02T05:55:58;98322.15;;;1.53;83.70
75247;BME280;63844;50.042;19.224;2023-02-02T05:58:25;98319.65;;;1.55;83.02
75247;BME280;63844;50.042;19.224;2023-02-02T06:00:51;98319.55;;;1.57;82.99
75247;BME280;63844;50.042;19.224;2023-02-02T06:03:18;98321.91;;;1.60;83.04
75247;BME280;63844;50.042;19.224;2023-02-02T06:05:44;98323.52;;;1.63;82.45
75247;BME280;63844;50.042;19.224;2023-02-02T06:08:11;98323.05;;;1.66;82.01
75247;BME280;63844;50.042;19.224;2023-02-02T06:10:39;98325.31;;;1.70;81.90
75247;BME280;63844;50.042;19.224;2023-02-02T06:13:06;98327.39;;;1.71;81.74
75247;BME280;63844;50.042;19.224;2023-02-02T06:15:34;98340.42;;;1.72;81.77
75247;BME280;63844;50.042;19.224;2023-02-02T06:18:01;98336.38;;;1.69;81.90
75247;BME280;63844;50.042;19.224;2023-02-02T06:20:28;98342.58;;;1.70;81.87
75247;BME280;63844;50.042;19.224;2023-02-02T06:22:55;98333.59;;;1.72;81.98
75247;BME280;63844;50.042;19.224;2023-02-02T06:25:21;98337.45;;;1.72;81.64
75247;BME280;63844;50.042;19.224;2023-02-02T06:27:48;98338.65;;;1.73;81.75
75247;BME280;63844;50.042;19.224;2023-02-02T06:30:15;98342.15;;;1.72;82.07
75247;BME280;63844;50.042;19.224;2023-02-02T06:32:41;98326.96;;;1.73;81.84
75247;BME280;63844;50.042;19.224;2023-02-02T06:35:08;98328.02;;;1.68;82.34
75247;BME280;63844;50.042;19.224;2023-02-02T06:37:34;98323.14;;;1.68;82.35
75247;BME280;63844;50.042;19.224;2023-02-02T06:40:05;98316.73;;;1.71;82.31
75247;BME280;63844;50.042;19.224;2023-02-02T06:42:32;98318.61;;;1.68;82.28
75247;BME280;63844;50.042;19.224;2023-02-02T06:44:59;98330.17;;;1.71;82.23
75247;BME280;63844;50.042;19.224;2023-02-02T06:47:26;98325.28;;;1.75;81.74
75247;BME280;63844;50.042;19.224;2023-02-02T06:49:52;98328.06;;;1.76;81.75
75247;BME280;63844;50.042;19.224;2023-02-02T06:52:19;98325.95;;;1.76;81.85
75247;BME280;63844;50.042;19.224;2023-02-02T06:54:45;98324.40;;;1.80;81.71
75247;BME280;63844;50.042;19.224;2023-02-02T06:57:12;98333.55;;;1.82;81.64
75247;BME280;63844;50.042;19.224;2023-02-02T06:59:38;98340.95;;;1.85;81.56
75247;BME280;63844;50.042;19.224;2023-02-02T07:02:10;98346.73;;;1.84;81.77
75247;BME280;63844;50.042;19.224;2023-02-02T07:04:38;98346.89;;;1.80;82.07
75247;BME280;63844;50.042;19.224;2023-02-02T07:07:04;98344.72;;;1.78;82.73
75247;BME280;63844;50.042;19.224;2023-02-02T07:09:32;98343.91;;;1.68;83.49
75247;BME280;63844;50.042;19.224;2023-02-02T07:11:59;98350.55;;;1.63;83.89
75247;BME280;63844;50.042;19.224;2023-02-02T07:14:25;98344.36;;;1.56;84.61
75247;BME280;63844;50.042;19.224;2023-02-02T07:16:52;98343.80;;;1.53;85.18
75247;BME280;63844;50.042;19.224;2023-02-02T07:19:19;98340.27;;;1.50;85.19
75247;BME280;63844;50.042;19.224;2023-02-02T07:21:45;98340.66;;;1.44;85.60
75247;BME280;63844;50.042;19.224;2023-02-02T07:24:11;98342.45;;;1.43;85.85
75247;BME280;63844;50.042;19.224;2023-02-02T07:26:38;98347.54;;;1.42;85.76
75247;BME280;63844;50.042;19.224;2023-02-02T07:29:05;98340.35;;;1.43;85.77
75247;BME280;63844;50.042;19.224;2023-02-02T07:31:32;98339.89;;;1.42;85.96
75247;BME280;63844;50.042;19.224;2023-02-02T07:33:58;98333.30;;;1.41;86.15
75247;BME280;63844;50.042;19.224;2023-02-02T07:36:25;98327.15;;;1.42;86.14
75247;BME280;63844;50.042;19.224;2023-02-02T07:38:52;98334.38;;;1.40;86.42
75247;BME280;63844;50.042;19.224;2023-02-02T07:41:20;98334.79;;;1.43;86.19
75247;BME280;63844;50.042;19.224;2023-02-02T07:43:48;98335.36;;;1.46;85.95
75247;BME280;63844;50.042;19.224;2023-02-02T07:46:15;98329.05;;;1.47;86.03
75247;BME280;63844;50.042;19.224;2023-02-02T07:48:42;98327.92;;;1.49;86.19
75247;BME280;63844;50.042;19.224;2023-02-02T07:51:12;98328.50;;;1.52;85.98
75247;BME280;63844;50.042;19.224;2023-02-02T07:53:42;98325.20;;;1.51;85.76
75247;BME280;63844;50.042;19.224;2023-02-02T07:56:11;98320.06;;;1.53;85.67
75247;BME280;63844;50.042;19.224;2023-02-02T07:58:38;98322.52;;;1.53;85.95
75247;BME280;63844;50.042;19.224;2023-02-02T08:01:07;98323.01;;;1.58;85.41
75247;BME280;63844;50.042;19.224;2023-02-02T08:03:34;98324.33;;;1.60;85.27
75247;BME280;63844;50.042;19.224;2023-02-02T08:06:08;98327.60;;;1.66;84.95
75247;BME280;63844;50.042;19.224;2023-02-02T08:08:35;98330.39;;;1.66;84.78
75247;BME280;63844;50.042;19.224;2023-02-02T08:11:01;98327.33;;;1.68;85.20
75247;BME280;63844;50.042;19.224;2023-02-02T08:13:28;98320.23;;;1.63;85.72
75247;BME280;63844;50.042;19.224;2023-02-02T08:15:57;98311.55;;;1.57;85.95
75247;BME280;63844;50.042;19.224;2023-02-02T08:18:24;98323.80;;;1.52;86.46
75247;BME280;63844;50.042;19.224;2023-02-02T08:20:51;98325.58;;;1.51;86.24
75247;BME280;63844;50.042;19.224;2023-02-02T08:23:18;98326.45;;;1.51;86.44
75247;BME280;63844;50.042;19.224;2023-02-02T08:25:49;98324.89;;;1.50;86.93
75247;BME280;63844;50.042;19.224;2023-02-02T08:28:16;98328.05;;;1.54;86.40
75247;BME280;63844;50.042;19.224;2023-02-02T08:30:43;98329.15;;;1.53;86.36
75247;BME280;63844;50.042;19.224;2023-02-02T08:33:11;98328.77;;;1.53;86.43
75247;BME280;63844;50.042;19.224;2023-02-02T08:35:42;98325.69;;;1.52;86.47
75247;BME280;63844;50.042;19.224;2023-02-02T08:38:09;98330.83;;;1.46;86.63
75247;BME280;63844;50.042;19.224;2023-02-02T08:40:35;98335.40;;;1.45;86.98
75247;BME280;63844;50.042;19.224;2023-02-02T08:43:02;98339.80;;;1.44;87.09
75247;BME280;63844;50.042;19.224;2023-02-02T08:45:30;98344.22;;;1.43;87.33
75247;BME280;63844;50.042;19.224;2023-02-02T08:47:56;98341.67;;;1.41;87.18
75247;BME280;63844;50.042;19.224;2023-02-02T08:50:23;98345.26;;;1.43;87.36
75247;BME280;63844;50.042;19.224;2023-02-02T08:52:49;98335.14;;;1.47;87.04
75247;BME280;63844;50.042;19.224;2023-02-02T08:55:16;98334.88;;;1.45;87.32
75247;BME280;63844;50.042;19.224;2023-02-02T08:57:42;98334.74;;;1.48;87.38
75247;BME280;63844;50.042;19.224;2023-02-02T09:00:09;98343.08;;;1.49;87.61
75247;BME280;63844;50.042;19.224;2023-02-02T09:02:37;98338.13;;;1.55;87.76
75247;BME280;63844;50.042;19.224;2023-02-02T09:05:04;98344.08;;;1.60;87.03
75247;BME280;63844;50.042;19.224;2023-02-02T09:07:30;98349.67;;;1.63;87.34
75247;BME280;63844;50.042;19.224;2023-02-02T09:09:57;98352.20;;;1.66;87.19
75247;BME280;63844;50.042;19.224;2023-02-02T09:12:23;98352.05;;;1.70;87.30
75247;BME280;63844;50.042;19.224;2023-02-02T09:14:50;98359.82;;;1.67;86.69
75247;BME280;63844;50.042;19.224;2023-02-02T09:17:17;98359.23;;;1.68;86.66
75247;BME280;63844;50.042;19.224;2023-02-02T09:19:43;98370.64;;;1.71;86.45
75247;BME280;63844;50.042;19.224;2023-02-02T09:22:10;98380.05;;;1.71;86.72
75247;BME280;63844;50.042;19.224;2023-02-02T09:24:36;98389.61;;;1.68;87.01
75247;BME280;63844;50.042;19.224;2023-02-02T09:27:03;98393.65;;;1.62;87.51
75247;BME280;63844;50.042;19.224;2023-02-02T09:29:30;98405.86;;;1.49;87.55
75247;BME280;63844;50.042;19.224;2023-02-02T09:31:56;98404.77;;;1.37;88.13
75247;BME280;63844;50.042;19.224;2023-02-02T09:34:23;98401.73;;;1.25;88.51
75247;BME280;63844;50.042;19.224;2023-02-02T09:36:50;98398.68;;;1.08;89.18
75247;BME280;63844;50.042;19.224;2023-02-02T09:39:17;98409.91;;;1.02;89.23
75247;BME280;63844;50.042;19.224;2023-02-02T09:44:56;98419.33;;;0.73;90.47
75247;BME280;63844;50.042;19.224;2023-02-02T09:47:48;98423.80;;;0.64;90.65
75247;BME280;63844;50.042;19.224;2023-02-02T09:50:24;98420.41;;;0.52;91.30
75247;BME280;63844;50.042;19.224;2023-02-02T09:52:59;98423.77;;;0.45;91.35
75247;BME280;63844;50.042;19.224;2023-02-02T09:55:35;98426.87;;;0.41;91.29
75247;BME280;63844;50.042;19.224;2023-02-02T09:58:18;98423.66;;;0.33;91.78
75247;BME280;63844;50.042;19.224;2023-02-02T10:00:54;98426.54;;;0.31;91.51
75247;BME280;63844;50.042;19.224;2023-02-02T10:06:10;98422.65;;;0.32;91.84
75247;BME280;63844;50.042;19.224;2023-02-02T10:08:54;98423.91;;;0.36;92.12
75247;BME280;63844;50.042;19.224;2023-02-02T10:11:33;98432.50;;;0.39;92.72
75247;BME280;63844;50.042;19.224;2023-02-02T10:14:10;98430.58;;;0.45;92.65
75247;BME280;63844;50.042;19.224;2023-02-02T10:16:40;98432.20;;;0.53;92.42
75247;BME280;63844;50.042;19.224;2023-02-02T10:19:10;98427.35;;;0.57;92.52
75247;BME280;63844;50.042;19.224;2023-02-02T10:22:04;98431.70;;;0.68;92.40
75247;BME280;63844;50.042;19.224;2023-02-02T10:24:32;98432.23;;;0.73;92.52
75247;BME280;63844;50.042;19.224;2023-02-02T10:27:07;98431.18;;;0.82;92.22
75247;BME280;63844;50.042;19.224;2023-02-02T10:29:57;98428.48;;;0.94;91.96
75247;BME280;63844;50.042;19.224;2023-02-02T10:32:46;98427.98;;;1.03;91.78
75247;BME280;63844;50.042;19.224;2023-02-02T10:38:06;98437.10;;;1.20;91.49
75247;BME280;63844;50.042;19.224;2023-02-02T10:41:00;98445.92;;;1.27;91.25
75247;BME280;63844;50.042;19.224;2023-02-02T10:46:42;98459.88;;;1.45;90.73
75247;BME280;63844;50.042;19.224;2023-02-02T10:49:30;98460.64;;;1.53;90.35
75247;BME280;63844;50.042;19.224;2023-02-02T10:52:10;98454.70;;;1.58;90.68
75247;BME280;63844;50.042;19.224;2023-02-02T10:54:53;98464.52;;;1.62;90.41
75247;BME280;63844;50.042;19.224;2023-02-02T10:58:17;98462.48;;;1.65;90.80
75247;BME280;63844;50.042;19.224;2023-02-02T11:00:42;98463.98;;;1.67;91.11
75247;BME280;63844;50.042;19.224;2023-02-02T11:03:13;98464.36;;;1.70;91.14
75247;BME280;63844;50.042;19.224;2023-02-02T11:05:41;98467.80;;;1.71;91.20
75247;BME280;63844;50.042;19.224;2023-02-02T11:08:53;98480.92;;;1.70;91.73
75247;BME280;63844;50.042;19.224;2023-02-02T11:11:33;98491.63;;;1.60;91.58
75247;BME280;63844;50.042;19.224;2023-02-02T11:16:36;98506.54;;;1.24;90.69
75247;BME280;63844;50.042;19.224;2023-02-02T11:19:21;98498.80;;;1.17;91.24
75247;BME280;63844;50.042;19.224;2023-02-02T11:21:51;98494.39;;;1.18;91.15
75247;BME280;63844;50.042;19.224;2023-02-02T11:24:29;98498.71;;;1.19;91.45
75247;BME280;63844;50.042;19.224;2023-02-02T11:32:17;98520.07;;;1.26;91.52
75247;BME280;63844;50.042;19.224;2023-02-02T11:34:45;98516.91;;;1.26;91.83
75247;BME280;63844;50.042;19.224;2023-02-02T11:37:19;98525.53;;;1.29;91.95
75247;BME280;63844;50.042;19.224;2023-02-02T11:39:46;98520.17;;;1.37;91.81
75247;BME280;63844;50.042;19.224;2023-02-02T11:42:21;98525.01;;;1.48;91.57
75247;BME280;63844;50.042;19.224;2023-02-02T11:44:54;98524.92;;;1.60;91.01
75247;BME280;63844;50.042;19.224;2023-02-02T11:47:30;98521.77;;;1.70;91.24
75247;BME280;63844;50.042;19.224;2023-02-02T11:50:00;98527.79;;;1.76;91.17
75247;BME280;63844;50.042;19.224;2023-02-02T11:52:29;98521.89;;;1.84;90.85
75247;BME280;63844;50.042;19.224;2023-02-02T11:54:59;98523.73;;;1.91;91.26
75247;BME280;63844;50.042;19.224;2023-02-02T11:57:27;98528.37;;;1.97;90.87
75247;BME280;63844;50.042;19.224;2023-02-02T12:00:17;98540.29;;;2.00;90.41
75247;BME280;63844;50.042;19.224;2023-02-02T12:02:51;98542.67;;;2.07;89.66
75247;BME280;63844;50.042;19.224;2023-02-02T12:07:44;98542.12;;;2.03;90.31
75247;BME280;63844;50.042;19.224;2023-02-02T12:10:38;98536.63;;;2.10;90.19
75247;BME280;63844;50.042;19.224;2023-02-02T12:13:21;98531.50;;;2.25;90.36
75247;BME280;63844;50.042;19.224;2023-02-02T12:24:34;98548.58;;;2.30;89.15
75247;BME280;63844;50.042;19.224;2023-02-02T12:30:16;98550.98;;;2.22;88.79
75247;BME280;63844;50.042;19.224;2023-02-02T12:33:06;98547.10;;;2.19;89.01
75247;BME280;63844;50.042;19.224;2023-02-02T12:38:40;98556.87;;;2.23;88.39
75247;BME280;63844;50.042;19.224;2023-02-02T12:41:23;98560.95;;;2.26;88.24
75247;BME280;63844;50.042;19.224;2023-02-02T12:44:10;98553.64;;;2.29;88.09
75247;BME280;63844;50.042;19.224;2023-02-02T12:52:15;98571.66;;;2.37;88.27
75247;BME280;63844;50.042;19.224;2023-02-02T12:57:58;98584.55;;;2.42;87.67
75247;BME280;63844;50.042;19.224;2023-02-02T13:00:42;98587.34;;;2.47;86.98
75247;BME280;63844;50.042;19.224;2023-02-02T13:03:25;98589.20;;;2.49;86.81
75247;BME280;63844;50.042;19.224;2023-02-02T13:09:05;98593.14;;;2.51;86.80
75247;BME280;63844;50.042;19.224;2023-02-02T13:11:41;98597.57;;;2.50;86.56
75247;BME280;63844;50.042;19.224;2023-02-02T13:14:15;98605.42;;;2.50;86.69
75247;BME280;63844;50.042;19.224;2023-02-02T13:16:46;98606.00;;;2.53;86.64
75247;BME280;63844;50.042;19.224;2023-02-02T13:19:35;98608.52;;;2.55;86.99
75247;BME280;63844;50.042;19.224;2023-02-02T13:22:06;98613.88;;;2.57;87.04
75247;BME280;63844;50.042;19.224;2023-02-02T13:24:36;98619.41;;;2.58;87.14
75247;BME280;63844;50.042;19.224;2023-02-02T13:27:06;98616.80;;;2.62;86.38
75247;BME280;63844;50.042;19.224;2023-02-02T13:29:53;98626.92;;;2.67;86.03
75247;BME280;63844;50.042;19.224;2023-02-02T13:32:29;98627.41;;;2.72;85.64
75247;BME280;63844;50.042;19.224;2023-02-02T13:37:52;98630.23;;;2.76;85.18
75247;BME280;63844;50.042;19.224;2023-02-02T13:40:37;98631.27;;;2.76;84.98
75247;BME280;63844;50.042;19.224;2023-02-02T13:46:01;98642.55;;;2.78;85.27
75247;BME280;63844;50.042;19.224;2023-02-02T13:51:46;98654.31;;;2.81;85.35
75247;BME280;63844;50.042;19.224;2023-02-02T14:00:18;98665.75;;;2.75;84.83
75247;BME280;63844;50.042;19.224;2023-02-02T14:05:40;98669.23;;;2.75;85.04
75247;BME280;63844;50.042;19.224;2023-02-02T14:08:17;98669.85;;;2.73;84.93
75247;BME280;63844;50.042;19.224;2023-02-02T14:10:56;98666.66;;;2.69;85.06
75247;BME280;63844;50.042;19.224;2023-02-02T14:13:44;98671.23;;;2.68;85.28
75247;BME280;63844;50.042;19.224;2023-02-02T14:18:58;98678.63;;;2.67;85.59
75247;BME280;63844;50.042;19.224;2023-02-02T14:26:57;98687.23;;;2.66;85.61
75247;BME280;63844;50.042;19.224;2023-02-02T14:31:59;98690.39;;;2.75;85.55
75247;BME280;63844;50.042;19.224;2023-02-02T14:34:30;98693.30;;;2.76;85.06
75247;BME280;63844;50.042;19.224;2023-02-02T14:39:57;98693.90;;;2.79;84.46
75247;BME280;63844;50.042;19.224;2023-02-02T14:48:34;98713.87;;;2.82;83.96
75247;BME280;63844;50.042;19.224;2023-02-02T14:51:01;98718.60;;;2.82;83.50
75247;BME280;63844;50.042;19.224;2023-02-02T14:53:31;98724.83;;;2.83;83.23